sensor_id;sensor_type;location;lat;lon;timestamp;pressure;altitude;pressure_sealevel;temperature;humidity
48622;BME280;34421;48.944;9.460;2023-03-25T00:00:07;97920.88;;;10.60;71.85
48622;BME280;34421;48.944;9.460;2023-03-25T00:02:39;97911.81;;;10.61;70.59
48622;BME280;34421;48.944;9.460;2023-03-25T00:05:05;97914.03;;;10.64;71.40
48622;BME280;34421;48.944;9.460;2023-03-25T00:07:30;97909.06;;;10.67;71.93
48622;BME280;34421;48.944;9.460;2023-03-25T00:09:56;97916.63;;;10.70;70.52
48622;BME280;34421;48.944;9.460;2023-03-25T00:12:21;97910.84;;;10.73;70.85
48622;BME280;34421;48.944;9.460;2023-03-25T00:14:46;97924.16;;;10.73;70.43
48622;BME280;34421;48.944;9.460;2023-03-25T00:17:18;97917.13;;;10.79;70.69
48622;BME280;34421;48.944;9.460;2023-03-25T00:19:44;97905.44;;;10.80;71.24
48622;BME280;34421;48.944;9.460;2023-03-25T00:22:09;97908.91;;;10.81;70.88
48622;BME280;34421;48.944;9.460;2023-03-25T00:24:34;97899.63;;;10.71;70.26
48622;BME280;34421;48.944;9.460;2023-03-25T00:27:00;97903.91;;;10.72;69.38
48622;BME280;34421;48.944;9.460;2023-03-25T00:29:25;97898.13;;;10.76;69.58
48622;BME280;34421;48.944;9.460;2023-03-25T00:31:50;97899.97;;;10.75;70.19
48622;BME280;34421;48.944;9.460;2023-03-25T00:34:15;97905.16;;;10.70;69.01
48622;BME280;34421;48.944;9.460;2023-03-25T00:36:40;97903.31;;;10.70;69.26
48622;BME280;34421;48.944;9.460;2023-03-25T00:39:07;97904.13;;;10.71;70.05
48622;BME280;34421;48.944;9.460;2023-03-25T00:41:32;97921.50;;;10.73;68.79
48622;BME280;34421;48.944;9.460;2023-03-25T00:44:00;97923.50;;;10.78;69.06
48622;BME280;34421;48.944;9.460;2023-03-25T00:46:26;97923.03;;;10.81;68.90
48622;BME280;34421;48.944;9.460;2023-03-25T00:48:52;97919.41;;;10.76;70.12
48622;BME280;34421;48.944;9.460;2023-03-25T00:51:19;97917.22;;;10.72;68.78
48622;BME280;34421;48.944;9.460;2023-03-25T00:53:45;97920.56;;;10.68;69.85
48622;BME280;34421;48.944;9.460;2023-03-25T00:56:11;97920.13;;;10.71;69.87
48622;BME280;34421;48.944;9.460;2023-03-25T00:58:36;97903.31;;;10.70;68.80
48622;BME280;34421;48.944;9.460;2023-03-25T01:01:06;97904.50;;;10.75;69.99
48622;BME280;34421;48.944;9.460;2023-03-25T01:03:31;97908.91;;;10.81;68.92
48622;BME280;34421;48.944;9.460;2023-03-25T01:06:01;97902.53;;;10.82;68.67
48622;BME280;34421;48.944;9.460;2023-03-25T01:08:27;97903.75;;;10.86;68.73
48622;BME280;34421;48.944;9.460;2023-03-25T01:10:54;97894.56;;;10.82;68.81
48622;BME280;34421;48.944;9.460;2023-03-25T01:13:20;97892.59;;;10.77;69.58
48622;BME280;34421;48.944;9.460;2023-03-25T01:15:45;97876.69;;;10.70;68.80
48622;BME280;34421;48.944;9.460;2023-03-25T01:18:11;97877.28;;;10.72;68.80
48622;BME280;34421;48.944;9.460;2023-03-25T01:20:37;97874.75;;;10.78;69.96
48622;BME280;34421;48.944;9.460;2023-03-25T01:23:03;97874.16;;;10.76;68.58
48622;BME280;34421;48.944;9.460;2023-03-25T01:25:28;97878.31;;;10.71;69.58
48622;BME280;34421;48.944;9.460;2023-03-25T01:27:53;97871.81;;;10.67;68.25
48622;BME280;34421;48.944;9.460;2023-03-25T01:30:18;97867.38;;;10.61;68.70
48622;BME280;34421;48.944;9.460;2023-03-25T01:32:44;97866.22;;;10.57;69.54
48622;BME280;34421;48.944;9.460;2023-03-25T01:35:09;97866.88;;;10.53;69.09
48622;BME280;34421;48.944;9.460;2023-03-25T01:37:36;97857.50;;;10.50;69.55
48622;BME280;34421;48.944;9.460;2023-03-25T01:40:02;97856.63;;;10.38;69.27
48622;BME280;34421;48.944;9.460;2023-03-25T01:42:29;97857.81;;;10.23;69.17
48622;BME280;34421;48.944;9.460;2023-03-25T01:47:39;97846.22;;;10.18;70.06
48622;BME280;34421;48.944;9.460;2023-03-25T01:50:05;97830.19;;;10.06;69.17
48622;BME280;34421;48.944;9.460;2023-03-25T01:52:32;97840.06;;;9.99;69.24
48622;BME280;34421;48.944;9.460;2023-03-25T01:54:57;97840.38;;;9.91;69.08
48622;BME280;34421;48.944;9.460;2023-03-25T01:57:23;97846.13;;;9.88;69.32
48622;BME280;34421;48.944;9.460;2023-03-25T01:59:49;97846.50;;;9.91;68.53
48622;BME280;34421;48.944;9.460;2023-03-25T02:02:15;97848.13;;;9.92;68.51
48622;BME280;34421;48.944;9.460;2023-03-25T02:05:02;97843.63;;;9.93;68.94
48622;BME280;34421;48.944;9.460;2023-03-25T02:07:32;97850.13;;;9.97;68.90
48622;BME280;34421;48.944;9.460;2023-03-25T02:10:00;97834.75;;;9.99;68.96
48622;BME280;34421;48.944;9.460;2023-03-25T02:12:26;97841.75;;;9.93;68.38
48622;BME280;34421;48.944;9.460;2023-03-25T02:14:51;97837.13;;;9.89;68.55
48622;BME280;34421;48.944;9.460;2023-03-25T02:27:49;97820.13;;;9.71;68.01
48622;BME280;34421;48.944;9.460;2023-03-25T02:40:42;97811.97;;;9.66;68.97
48622;BME280;34421;48.944;9.460;2023-03-25T02:43:11;97816.28;;;9.67;68.58
48622;BME280;34421;48.944;9.460;2023-03-25T02:45:43;97837.25;;;9.75;68.37
48622;BME280;34421;48.944;9.460;2023-03-25T02:48:11;97846.19;;;9.81;68.83
48622;BME280;34421;48.944;9.460;2023-03-25T02:50:40;97894.13;;;9.93;68.51
48622;BME280;34421;48.944;9.460;2023-03-25T02:53:08;97908.47;;;9.92;70.72
48622;BME280;34421;48.944;9.460;2023-03-25T02:55:35;97928.94;;;9.66;72.68
48622;BME280;34421;48.944;9.460;2023-03-25T02:58:02;97936.97;;;9.34;73.78
48622;BME280;34421;48.944;9.460;2023-03-25T03:00:29;97932.16;;;9.18;74.79
48622;BME280;34421;48.944;9.460;2023-03-25T03:07:50;97913.44;;;8.75;75.44
48622;BME280;34421;48.944;9.460;2023-03-25T03:10:19;97922.88;;;8.64;75.65
48622;BME280;34421;48.944;9.460;2023-03-25T03:18:04;97869.19;;;8.62;74.85
48622;BME280;34421;48.944;9.460;2023-03-25T03:26:23;97875.94;;;8.58;74.62
48622;BME280;34421;48.944;9.460;2023-03-25T03:29:35;97858.41;;;8.57;74.16
48622;BME280;34421;48.944;9.460;2023-03-25T03:34:29;97854.34;;;8.48;73.82
48622;BME280;34421;48.944;9.460;2023-03-25T03:36:58;97879.50;;;8.45;74.55
48622;BME280;34421;48.944;9.460;2023-03-25T03:39:26;97890.53;;;8.42;74.44
48622;BME280;34421;48.944;9.460;2023-03-25T03:41:54;97875.84;;;8.26;74.20
48622;BME280;34421;48.944;9.460;2023-03-25T03:44:24;97894.66;;;8.11;74.95
48622;BME280;34421;48.944;9.460;2023-03-25T03:46:55;97894.84;;;8.16;74.99
48622;BME280;34421;48.944;9.460;2023-03-25T03:49:23;97891.38;;;8.22;75.20
48622;BME280;34421;48.944;9.460;2023-03-25T03:51:52;97888.31;;;8.19;75.06
48622;BME280;34421;48.944;9.460;2023-03-25T03:56:54;97906.66;;;8.27;75.29
48622;BME280;34421;48.944;9.460;2023-03-25T04:01:49;97918.88;;;8.41;74.78
48622;BME280;34421;48.944;9.460;2023-03-25T04:04:19;97920.69;;;8.48;75.00
48622;BME280;34421;48.944;9.460;2023-03-25T04:07:04;97929.44;;;8.55;75.10
48622;BME280;34421;48.944;9.460;2023-03-25T04:12:04;97927.97;;;8.59;74.51
48622;BME280;34421;48.944;9.460;2023-03-25T04:14:33;97927.81;;;8.54;75.03
48622;BME280;34421;48.944;9.460;2023-03-25T04:16:59;97933.31;;;8.52;74.91
48622;BME280;34421;48.944;9.460;2023-03-25T04:19:25;97933.50;;;8.57;74.82
48622;BME280;34421;48.944;9.460;2023-03-25T04:21:50;97929.22;;;8.56;74.92
48622;BME280;34421;48.944;9.460;2023-03-25T04:24:15;97927.81;;;8.54;75.00
48622;BME280;34421;48.944;9.460;2023-03-25T04:26:43;97928.41;;;8.56;74.81
48622;BME280;34421;48.944;9.460;2023-03-25T04:29:08;97937.38;;;8.61;74.73
48622;BME280;34421;48.944;9.460;2023-03-25T04:31:34;97933.69;;;8.69;75.17
48622;BME280;34421;48.944;9.460;2023-03-25T04:33:59;97929.97;;;8.70;75.09
48622;BME280;34421;48.944;9.460;2023-03-25T04:36:26;97928.78;;;8.66;75.00
48622;BME280;34421;48.944;9.460;2023-03-25T04:39:01;97921.44;;;8.61;74.57
48622;BME280;34421;48.944;9.460;2023-03-25T04:41:27;97921.44;;;8.61;75.08
48622;BME280;34421;48.944;9.460;2023-03-25T04:43:52;97931.25;;;8.61;74.98
48622;BME280;34421;48.944;9.460;2023-03-25T04:46:17;97925.94;;;8.61;74.67
48622;BME280;34421;48.944;9.460;2023-03-25T04:48:43;97924.72;;;8.63;74.46
48622;BME280;34421;48.944;9.460;2023-03-25T04:51:10;97925.09;;;8.67;74.74
48622;BME280;34421;48.944;9.460;2023-03-25T04:53:36;97921.63;;;8.66;74.03
48622;BME280;34421;48.944;9.460;2023-03-25T04:56:03;97924.28;;;8.66;74.11
48622;BME280;34421;48.944;9.460;2023-03-25T04:58:29;97916.94;;;8.62;74.41
48622;BME280;34421;48.944;9.460;2023-03-25T05:00:54;97923.09;;;8.56;74.05
48622;BME280;34421;48.944;9.460;2023-03-25T05:03:19;97925.97;;;8.54;74.25
48622;BME280;34421;48.944;9.460;2023-03-25T05:05:51;97928.41;;;8.56;74.52
48622;BME280;34421;48.944;9.460;2023-03-25T05:08:17;97918.03;;;8.48;74.43
48622;BME280;34421;48.944;9.460;2023-03-25T05:10:42;97922.31;;;8.35;74.05
48622;BME280;34421;48.944;9.460;2023-03-25T05:13:08;97925.22;;;8.27;74.34
48622;BME280;34421;48.944;9.460;2023-03-25T05:15:34;97931.13;;;8.29;74.63
48622;BME280;34421;48.944;9.460;2023-03-25T05:18:07;97932.53;;;8.32;74.26
48622;BME280;34421;48.944;9.460;2023-03-25T05:20:36;97928.25;;;8.37;74.17
48622;BME280;34421;48.944;9.460;2023-03-25T05:23:03;97938.69;;;8.39;73.98
48622;BME280;34421;48.944;9.460;2023-03-25T05:25:29;97936.81;;;8.33;73.80
48622;BME280;34421;48.944;9.460;2023-03-25T05:27:58;97939.88;;;8.36;73.73
48622;BME280;34421;48.944;9.460;2023-03-25T05:30:23;97942.16;;;8.39;73.82
48622;BME280;34421;48.944;9.460;2023-03-25T05:32:56;97939.50;;;8.39;73.85
48622;BME280;34421;48.944;9.460;2023-03-25T05:35:23;97945.63;;;8.40;73.80
48622;BME280;34421;48.944;9.460;2023-03-25T05:37:50;97942.16;;;8.39;73.76
48622;BME280;34421;48.944;9.460;2023-03-25T05:40:16;97946.44;;;8.40;73.44
48622;BME280;34421;48.944;9.460;2023-03-25T05:42:42;97948.03;;;8.41;73.54
48622;BME280;34421;48.944;9.460;2023-03-25T05:45:12;97955.59;;;8.44;73.78
48622;BME280;34421;48.944;9.460;2023-03-25T05:47:39;97951.50;;;8.49;73.56
48622;BME280;34421;48.944;9.460;2023-03-25T05:50:04;97941.09;;;8.54;73.30
48622;BME280;34421;48.944;9.460;2023-03-25T05:52:29;97954.31;;;8.60;73.23
48622;BME280;34421;48.944;9.460;2023-03-25T05:54:55;97948.38;;;8.65;72.98
48622;BME280;34421;48.944;9.460;2023-03-25T05:57:20;97961.84;;;8.70;72.34
48622;BME280;34421;48.944;9.460;2023-03-25T05:59:45;97954.06;;;8.75;71.78
48622;BME280;34421;48.944;9.460;2023-03-25T06:02:14;97957.06;;;8.85;71.77
48622;BME280;34421;48.944;9.460;2023-03-25T06:04:40;97951.28;;;8.95;71.38
48622;BME280;34421;48.944;9.460;2023-03-25T06:07:07;97945.97;;;9.02;71.56
48622;BME280;34421;48.944;9.460;2023-03-25T06:09:33;97951.44;;;9.07;70.86
48622;BME280;34421;48.944;9.460;2023-03-25T06:11:59;97943.88;;;9.10;70.48
48622;BME280;34421;48.944;9.460;2023-03-25T06:14:25;97947.16;;;9.06;69.86
48622;BME280;34421;48.944;9.460;2023-03-25T06:16:51;97953.28;;;9.06;69.63
48622;BME280;34421;48.944;9.460;2023-03-25T06:19:16;97960.38;;;9.12;69.72
48622;BME280;34421;48.944;9.460;2023-03-25T06:21:42;97967.72;;;9.17;69.81
48622;BME280;34421;48.944;9.460;2023-03-25T06:24:07;97969.97;;;9.20;69.61
48622;BME280;34421;48.944;9.460;2023-03-25T06:26:32;97969.97;;;9.20;69.34
48622;BME280;34421;48.944;9.460;2023-03-25T06:28:58;97975.78;;;9.35;68.76
48622;BME280;34421;48.944;9.460;2023-03-25T06:31:24;97976.53;;;9.49;69.09
48622;BME280;34421;48.944;9.460;2023-03-25T06:33:57;97981.84;;;9.49;69.02
48622;BME280;34421;48.944;9.460;2023-03-25T06:36:22;97978.53;;;9.54;68.53
48622;BME280;34421;48.944;9.460;2023-03-25T06:38:49;97974.41;;;9.58;68.56
48622;BME280;34421;48.944;9.460;2023-03-25T06:41:15;97978.25;;;9.62;68.75
48622;BME280;34421;48.944;9.460;2023-03-25T06:43:44;97974.13;;;9.66;68.18
48622;BME280;34421;48.944;9.460;2023-03-25T06:46:10;97980.28;;;9.67;67.90
48622;BME280;34421;48.944;9.460;2023-03-25T06:48:35;97982.72;;;9.68;68.69
48622;BME280;34421;48.944;9.460;2023-03-25T06:51:00;97977.19;;;9.70;68.23
48622;BME280;34421;48.944;9.460;2023-03-25T06:53:25;97984.25;;;9.82;67.68
48622;BME280;34421;48.944;9.460;2023-03-25T06:55:51;97978.34;;;9.99;66.91
48622;BME280;34421;48.944;9.460;2023-03-25T06:58:16;97981.66;;;10.19;67.12
48622;BME280;34421;48.944;9.460;2023-03-25T07:00:41;97976.25;;;10.26;66.81
48622;BME280;34421;48.944;9.460;2023-03-25T07:03:07;97984.34;;;10.38;66.48
48622;BME280;34421;48.944;9.460;2023-03-25T07:05:32;97977.72;;;10.47;65.90
48622;BME280;34421;48.944;9.460;2023-03-25T07:07:57;97980.53;;;10.52;65.57
48622;BME280;34421;48.944;9.460;2023-03-25T07:10:23;97987.34;;;10.48;64.41
48622;BME280;34421;48.944;9.460;2023-03-25T07:12:48;97978.91;;;10.51;64.79
48622;BME280;34421;48.944;9.460;2023-03-25T07:15:13;97986.38;;;10.61;64.61
48622;BME280;34421;48.944;9.460;2023-03-25T07:17:38;97974.16;;;10.71;63.88
48622;BME280;34421;48.944;9.460;2023-03-25T07:20:04;97979.03;;;10.93;63.87
48622;BME280;34421;48.944;9.460;2023-03-25T07:22:30;97981.47;;;11.25;64.43
48622;BME280;34421;48.944;9.460;2023-03-25T07:24:55;97980.50;;;11.49;63.42
48622;BME280;34421;48.944;9.460;2023-03-25T07:27:22;97969.47;;;11.88;62.33
48622;BME280;34421;48.944;9.460;2023-03-25T07:29:47;97966.84;;;12.75;61.51
48622;BME280;34421;48.944;9.460;2023-03-25T07:32:12;97968.72;;;12.74;59.92
48622;BME280;34421;48.944;9.460;2023-03-25T07:34:38;97971.31;;;12.46;60.07
48622;BME280;34421;48.944;9.460;2023-03-25T07:37:03;97980.16;;;12.11;59.92
48622;BME280;34421;48.944;9.460;2023-03-25T07:39:28;97973.03;;;11.81;60.61
48622;BME280;34421;48.944;9.460;2023-03-25T07:41:54;97975.75;;;11.93;59.49
48622;BME280;34421;48.944;9.460;2023-03-25T07:44:19;97975.75;;;12.17;59.31
48622;BME280;34421;48.944;9.460;2023-03-25T07:46:45;97963.09;;;12.24;58.59
48622;BME280;34421;48.944;9.460;2023-03-25T07:49:11;97970.13;;;12.65;57.02
48622;BME280;34421;48.944;9.460;2023-03-25T07:51:36;97974.78;;;13.39;55.35
48622;BME280;34421;48.944;9.460;2023-03-25T07:54:01;97978.97;;;13.23;55.09
48622;BME280;34421;48.944;9.460;2023-03-25T07:56:26;97978.97;;;13.06;55.38
48622;BME280;34421;48.944;9.460;2023-03-25T07:58:51;97980.03;;;12.93;56.28
48622;BME280;34421;48.944;9.460;2023-03-25T08:01:17;97975.31;;;12.72;55.91
48622;BME280;34421;48.944;9.460;2023-03-25T08:03:42;97975.31;;;12.72;56.86
48622;BME280;34421;48.944;9.460;2023-03-25T08:06:07;97972.22;;;13.78;54.73
48622;BME280;34421;48.944;9.460;2023-03-25T08:08:32;97969.13;;;16.21;48.51
48622;BME280;34421;48.944;9.460;2023-03-25T08:10:58;97969.13;;;17.57;45.54
48622;BME280;34421;48.944;9.460;2023-03-25T08:13:23;97959.94;;;18.50;44.10
48622;BME280;34421;48.944;9.460;2023-03-25T08:15:48;97966.69;;;17.50;43.15
48622;BME280;34421;48.944;9.460;2023-03-25T08:18:14;97975.22;;;16.11;45.89
48622;BME280;34421;48.944;9.460;2023-03-25T08:20:39;97972.50;;;15.42;47.71
48622;BME280;34421;48.944;9.460;2023-03-25T08:23:05;97970.31;;;14.90;47.97
48622;BME280;34421;48.944;9.460;2023-03-25T08:25:34;97966.59;;;14.91;49.35
48622;BME280;34421;48.944;9.460;2023-03-25T08:27:59;97960.91;;;14.87;49.01
48622;BME280;34421;48.944;9.460;2023-03-25T08:30:24;97971.50;;;14.55;49.77
48622;BME280;34421;48.944;9.460;2023-03-25T08:32:50;97960.84;;;14.60;49.73
48622;BME280;34421;48.944;9.460;2023-03-25T08:35:19;97950.56;;;15.50;49.17
48622;BME280;34421;48.944;9.460;2023-03-25T08:37:45;97956.72;;;16.62;45.65
48622;BME280;34421;48.944;9.460;2023-03-25T08:40:10;97959.38;;;16.52;46.09
48622;BME280;34421;48.944;9.460;2023-03-25T08:42:36;97966.75;;;16.30;46.30
48622;BME280;34421;48.944;9.460;2023-03-25T08:45:02;97952.78;;;16.28;46.73
48622;BME280;34421;48.944;9.460;2023-03-25T08:47:27;97956.47;;;16.64;45.99
48622;BME280;34421;48.944;9.460;2023-03-25T08:49:53;97949.34;;;16.37;46.00
48622;BME280;34421;48.944;9.460;2023-03-25T08:52:18;97945.25;;;16.30;46.02
48622;BME280;34421;48.944;9.460;2023-03-25T08:54:43;97944.84;;;17.21;45.64
48622;BME280;34421;48.944;9.460;2023-03-25T08:57:08;97939.50;;;19.88;40.87
48622;BME280;34421;48.944;9.460;2023-03-25T08:59:34;97945.09;;;19.96;39.27
48622;BME280;34421;48.944;9.460;2023-03-25T09:01:59;97938.97;;;19.02;40.22
48622;BME280;34421;48.944;9.460;2023-03-25T09:04:24;97931.97;;;18.15;40.30
48622;BME280;34421;48.944;9.460;2023-03-25T09:06:49;97924.91;;;17.07;42.65
48622;BME280;34421;48.944;9.460;2023-03-25T09:09:15;97926.03;;;16.53;44.67
48622;BME280;34421;48.944;9.460;2023-03-25T09:11:41;97941.38;;;15.68;46.23
48622;BME280;34421;48.944;9.460;2023-03-25T09:14:06;97933.94;;;14.99;47.90
48622;BME280;34421;48.944;9.460;2023-03-25T09:16:31;97935.19;;;14.64;50.25
48622;BME280;34421;48.944;9.460;2023-03-25T09:18:57;97937.72;;;14.15;51.70
48622;BME280;34421;48.944;9.460;2023-03-25T09:21:22;97945.38;;;13.89;52.67
48622;BME280;34421;48.944;9.460;2023-03-25T09:23:48;97959.47;;;13.68;53.13
48622;BME280;34421;48.944;9.460;2023-03-25T09:26:13;97967.72;;;13.50;53.11
48622;BME280;34421;48.944;9.460;2023-03-25T09:28:38;97973.25;;;13.60;52.96
48622;BME280;34421;48.944;9.460;2023-03-25T09:31:03;97974.25;;;14.04;53.55
48622;BME280;34421;48.944;9.460;2023-03-25T09:33:28;97973.50;;;14.65;52.02
48622;BME280;34421;48.944;9.460;2023-03-25T09:35:54;97958.63;;;15.50;50.36
48622;BME280;34421;48.944;9.460;2023-03-25T09:38:19;97966.91;;;16.55;49.05
48622;BME280;34421;48.944;9.460;2023-03-25T09:40:45;97976.69;;;17.96;45.92
48622;BME280;34421;48.944;9.460;2023-03-25T09:46:08;97979.28;;;15.77;47.53
48622;BME280;34421;48.944;9.460;2023-03-25T09:48:43;97977.00;;;15.36;48.20
48622;BME280;34421;48.944;9.460;2023-03-25T09:51:31;97973.88;;;15.22;49.00
48622;BME280;34421;48.944;9.460;2023-03-25T09:54:04;97971.75;;;15.79;48.67
48622;BME280;34421;48.944;9.460;2023-03-25T09:56:33;97974.47;;;17.37;45.36
48622;BME280;34421;48.944;9.460;2023-03-25T09:59:04;97970.19;;;17.51;45.20
48622;BME280;34421;48.944;9.460;2023-03-25T10:07:29;97973.03;;;16.93;46.76
48622;BME280;34421;48.944;9.460;2023-03-25T10:09:32;97964.72;;;16.47;46.75
48622;BME280;34421;48.944;9.460;2023-03-25T10:12:04;97958.69;;;16.30;47.60
48622;BME280;34421;48.944;9.460;2023-03-25T10:17:16;97948.41;;;19.04;42.87
48622;BME280;34421;48.944;9.460;2023-03-25T10:22:41;97934.41;;;17.96;44.47
48622;BME280;34421;48.944;9.460;2023-03-25T10:25:11;97939.53;;;17.62;44.58
48622;BME280;34421;48.944;9.460;2023-03-25T10:27:39;97957.72;;;17.09;46.07
48622;BME280;34421;48.944;9.460;2023-03-25T10:32:38;97941.44;;;15.51;50.48
48622;BME280;34421;48.944;9.460;2023-03-25T10:35:04;97944.59;;;14.67;55.08
48622;BME280;34421;48.944;9.460;2023-03-25T10:37:34;97951.28;;;13.91;55.92
48622;BME280;34421;48.944;9.460;2023-03-25T10:42:48;97941.63;;;13.40;58.17
48622;BME280;34421;48.944;9.460;2023-03-25T10:45:19;97937.75;;;13.19;59.15
48622;BME280;34421;48.944;9.460;2023-03-25T10:47:46;97938.81;;;12.89;61.36
48622;BME280;34421;48.944;9.460;2023-03-25T10:50:13;97952.72;;;12.51;61.57
48622;BME280;34421;48.944;9.460;2023-03-25T10:52:39;97952.41;;;12.47;62.50
48622;BME280;34421;48.944;9.460;2023-03-25T10:55:05;97942.97;;;12.57;61.79
48622;BME280;34421;48.944;9.460;2023-03-25T10:57:39;97936.44;;;12.76;61.96
48622;BME280;34421;48.944;9.460;2023-03-25T11:02:30;97945.53;;;12.92;61.31
48622;BME280;34421;48.944;9.460;2023-03-25T11:04:58;97957.25;;;13.31;61.15
48622;BME280;34421;48.944;9.460;2023-03-25T11:07:35;97952.31;;;13.40;60.72
48622;BME280;34421;48.944;9.460;2023-03-25T11:10:22;97959.91;;;13.31;60.37
48622;BME280;34421;48.944;9.460;2023-03-25T11:12:48;97962.38;;;13.21;60.82
48622;BME280;34421;48.944;9.460;2023-03-25T11:17:41;97947.13;;;15.27;59.75
48622;BME280;34421;48.944;9.460;2023-03-25T11:20:13;97941.88;;;18.45;53.18
48622;BME280;34421;48.944;9.460;2023-03-25T11:22:43;97932.50;;;21.96;46.46
48622;BME280;34421;48.944;9.460;2023-03-25T11:25:18;97921.47;;;21.93;44.95
48622;BME280;34421;48.944;9.460;2023-03-25T11:27:46;97931.97;;;20.38;45.61
48622;BME280;34421;48.944;9.460;2023-03-25T11:30:16;97947.75;;;18.68;48.00
48622;BME280;34421;48.944;9.460;2023-03-25T11:32:42;97942.44;;;17.20;49.84
48622;BME280;34421;48.944;9.460;2023-03-25T11:38:12;97935.31;;;18.67;49.21
48622;BME280;34421;48.944;9.460;2023-03-25T11:40:38;97929.31;;;17.95;49.25
48622;BME280;34421;48.944;9.460;2023-03-25T11:43:13;97930.03;;;17.19;51.26
48622;BME280;34421;48.944;9.460;2023-03-25T11:45:44;97928.78;;;16.63;51.46
48622;BME280;34421;48.944;9.460;2023-03-25T11:48:21;97920.03;;;16.31;51.93
48622;BME280;34421;48.944;9.460;2023-03-25T11:50:47;97943.94;;;16.32;52.00
48622;BME280;34421;48.944;9.460;2023-03-25T11:53:17;97926.66;;;16.18;52.47
48622;BME280;34421;48.944;9.460;2023-03-25T11:58:11;97915.81;;;16.50;52.12
48622;BME280;34421;48.944;9.460;2023-03-25T12:00:39;97906.13;;;16.44;51.19
48622;BME280;34421;48.944;9.460;2023-03-25T12:05:36;97919.56;;;16.44;51.59
48622;BME280;34421;48.944;9.460;2023-03-25T12:08:03;97912.31;;;16.50;52.65
48622;BME280;34421;48.944;9.460;2023-03-25T12:10:49;97900.41;;;16.25;52.22
48622;BME280;34421;48.944;9.460;2023-03-25T12:16:03;97910.69;;;15.96;51.46
48622;BME280;34421;48.944;9.460;2023-03-25T12:18:48;97906.94;;;15.97;50.20
48622;BME280;34421;48.944;9.460;2023-03-25T12:26:30;97906.06;;;15.54;48.17
48622;BME280;34421;48.944;9.460;2023-03-25T12:37:51;97895.44;;;15.37;49.57
48622;BME280;34421;48.944;9.460;2023-03-25T12:47:36;97931.44;;;15.68;44.91
48622;BME280;34421;48.944;9.460;2023-03-25T12:52:51;97913.84;;;15.83;44.81
48622;BME280;34421;48.944;9.460;2023-03-25T13:05:47;97936.38;;;14.73;49.52
48622;BME280;34421;48.944;9.460;2023-03-25T13:08:21;97942.34;;;14.80;48.56
48622;BME280;34421;48.944;9.460;2023-03-25T13:10:59;97951.75;;;14.61;48.90
48622;BME280;34421;48.944;9.460;2023-03-25T13:13:26;97954.38;;;14.39;49.48
48622;BME280;34421;48.944;9.460;2023-03-25T13:16:00;97928.69;;;14.21;50.46
48622;BME280;34421;48.944;9.460;2023-03-25T13:18:44;97932.66;;;14.19;51.98
48622;BME280;34421;48.944;9.460;2023-03-25T13:21:15;97928.47;;;14.06;51.47
48622;BME280;34421;48.944;9.460;2023-03-25T13:23:44;97914.81;;;14.24;51.24
48622;BME280;34421;48.944;9.460;2023-03-25T13:26:13;97925.47;;;14.41;50.46
48622;BME280;34421;48.944;9.460;2023-03-25T13:28:43;97913.53;;;14.49;50.25
48622;BME280;34421;48.944;9.460;2023-03-25T13:31:21;97906.94;;;14.34;49.81
48622;BME280;34421;48.944;9.460;2023-03-25T13:33:52;97907.16;;;14.33;50.09
48622;BME280;34421;48.944;9.460;2023-03-25T13:36:25;97908.31;;;14.37;49.38
48622;BME280;34421;48.944;9.460;2023-03-25T13:38:55;97917.19;;;14.21;49.73
48622;BME280;34421;48.944;9.460;2023-03-25T13:41:22;97908.41;;;14.64;49.48
48622;BME280;34421;48.944;9.460;2023-03-25T13:43:59;97915.38;;;14.65;48.71
48622;BME280;34421;48.944;9.460;2023-03-25T13:46:37;97912.63;;;14.60;48.05
48622;BME280;34421;48.944;9.460;2023-03-25T13:49:11;97901.91;;;14.60;47.18
48622;BME280;34421;48.944;9.460;2023-03-25T13:51:38;97922.63;;;14.48;47.40
48622;BME280;34421;48.944;9.460;2023-03-25T13:54:14;97908.41;;;14.47;47.95
48622;BME280;34421;48.944;9.460;2023-03-25T14:07:30;97899.44;;;14.80;47.63
48622;BME280;34421;48.944;9.460;2023-03-25T14:12:44;97892.22;;;15.35;47.84
48622;BME280;34421;48.944;9.460;2023-03-25T14:15:16;97896.84;;;15.72;46.79
48622;BME280;34421;48.944;9.460;2023-03-25T14:17:43;97894.53;;;15.91;46.76
48622;BME280;34421;48.944;9.460;2023-03-25T14:20:11;97919.78;;;15.90;43.09
48622;BME280;34421;48.944;9.460;2023-03-25T14:22:41;97908.09;;;15.69;42.94
48622;BME280;34421;48.944;9.460;2023-03-25T14:25:19;97915.00;;;15.65;42.03
48622;BME280;34421;48.944;9.460;2023-03-25T14:27:49;97937.16;;;15.50;42.96
48622;BME280;34421;48.944;9.460;2023-03-25T14:30:22;97946.19;;;15.12;44.42
48622;BME280;34421;48.944;9.460;2023-03-25T14:32:51;97982.03;;;14.84;45.53
48622;BME280;34421;48.944;9.460;2023-03-25T14:37:55;97961.34;;;14.79;48.40
48622;BME280;34421;48.944;9.460;2023-03-25T14:48:30;97954.38;;;14.56;48.79
48622;BME280;34421;48.944;9.460;2023-03-25T14:53:51;97945.53;;;14.39;47.52
48622;BME280;34421;48.944;9.460;2023-03-25T14:56:18;97944.03;;;14.26;47.86
48622;BME280;34421;48.944;9.460;2023-03-25T14:58:44;97937.72;;;14.15;48.42
48622;BME280;34421;48.944;9.460;2023-03-25T15:01:14;97931.84;;;14.18;48.55
48622;BME280;34421;48.944;9.460;2023-03-25T15:03:42;97936.19;;;14.19;47.26
48622;BME280;34421;48.944;9.460;2023-03-25T15:06:10;97936.34;;;14.12;47.45
48622;BME280;34421;48.944;9.460;2023-03-25T15:08:37;97938.63;;;14.04;47.96
48622;BME280;34421;48.944;9.460;2023-03-25T15:11:17;97923.44;;;14.09;48.38
48622;BME280;34421;48.944;9.460;2023-03-25T15:13:49;97921.50;;;14.05;47.66
48622;BME280;34421;48.944;9.460;2023-03-25T15:19:04;97917.78;;;14.06;48.59
48622;BME280;34421;48.944;9.460;2023-03-25T15:21:31;97912.88;;;14.20;48.91
48622;BME280;34421;48.944;9.460;2023-03-25T15:31:40;97911.91;;;14.26;48.27
48622;BME280;34421;48.944;9.460;2023-03-25T15:44:10;97913.69;;;14.59;47.60
48622;BME280;34421;48.944;9.460;2023-03-25T15:47:05;97913.19;;;14.62;47.37
48622;BME280;34421;48.944;9.460;2023-03-25T15:56:53;97919.41;;;14.46;45.57
48622;BME280;34421;48.944;9.460;2023-03-25T16:01:47;97923.09;;;14.62;45.17